Time;durP1;ratioP1;P1;durP2;ratioP2;P2;SDS_P1;SDS_P2;PMS_P1;PMS_P2;Temp;Humidity;BMP_temperature;BMP_pressure;BME280_temperature;BME280_humidity;BME280_pressure;Samples;Min_cycle;Max_cycle;Signal;HPM_P1;HPM_P2
2023/01/21 00:01:51;;;;;;;;;;;;;;;;;;6092924;23;19916;-70
2023/01/21 00:04:16;;;;;;;;;;;;;;;;;;6118496;23;19951;-71
2023/01/21 00:06:42;;;;;;;;;;;;;;;;;;6092166;23;20519;-70
2023/01/21 00:09:08;;;;;;;;;;;;;;;;;;6068714;23;19912;-71
2023/01/21 00:11:34;;;;;;;;;;;;;;;;;;6118388;23;19917;-72
2023/01/21 00:13:59;;;;;;;;;;;;;;;;;;6093187;23;19917;-70
2023/01/21 00:16:25;;;;;;;;;;;;;;;;;;6070073;23;19913;-70
2023/01/21 00:18:51;;;;;;;;;;;;;;;;;;6095440;23;19939;-71
2023/01/21 00:21:19;;;;;;;;;;;;;;;;;;6070469;23;19919;-70
2023/01/21 00:23:45;;;;;;;;;;;;;;;;;;6120232;23;19912;-71
2023/01/21 00:26:11;;;;;;;;;;;;;;;;;;6070588;23;19923;-70
2023/01/21 00:28:37;;;;;;;;;;;;;;;;;;6120376;23;19913;-71
2023/01/21 00:31:03;;;;;;;;;;;;;;;;;;6094559;23;20406;-70
2023/01/21 00:33:28;;;;;;;;;;;;;;;;;;6120314;23;19968;-71
2023/01/21 00:35:54;;;;;;;;;;;;;;;;;;6093925;23;19995;-70
2023/01/21 00:38:20;;;;;;;;;;;;;;;;;;6094489;23;20019;-69
2023/01/21 00:40:46;;;;;;;;;;;;;;;;;;6120307;23;19912;-71
2023/01/21 00:43:11;;;;;;;;;;;;;;;;;;6120683;23;19913;-70
2023/01/21 00:45:37;;;;;;;;;;;;;;;;;;6119970;23;20346;-70
2023/01/21 00:48:02;;;;;;;;;;;;;;;;;;6120402;23;19913;-70
2023/01/21 00:50:28;;;;;;;;;;;;;;;;;;6094094;23;19917;-70
2023/01/21 00:52:54;;;;;;;;;;;;;;;;;;6094261;23;19967;-70
2023/01/21 00:55:20;;;;;;;;;;;;;;;;;;6094098;23;20326;-70
2023/01/21 00:57:45;;;;;;;;;;;;;;;;;;6093975;23;19913;-69
2023/01/21 01:00:12;;;;;;;;;;;;;;;;;;6094269;23;19919;-69
2023/01/21 01:02:37;;;;;;;;;;;;;;;;;;6093496;23;19913;-68
2023/01/21 01:05:04;;;;;;;;;;;;;;;;;;6093815;23;19913;-70
2023/01/21 01:07:30;;;;;;;;;;;;;;;;;;6094041;23;20253;-70
2023/01/21 01:09:56;;;;;;;;;;;;;;;;;;6119889;23;19916;-70
2023/01/21 01:12:21;;;;;;;;;;;;;;;;;;6093949;23;19928;-70
2023/01/21 01:14:47;;;;;;;;;;;;;;;;;;6093666;23;19917;-70
2023/01/21 01:17:13;;;;;;;;;;;;;;;;;;6119585;23;19946;-70
2023/01/21 01:19:38;;;;;;;;;;;;;;;;;;6093588;23;19951;-71
2023/01/21 01:22:04;;;;;;;;;;;;;;;;;;6119864;23;19971;-70
2023/01/21 01:24:31;;;;;;;;;;;;;;;;;;6094372;23;19928;-69
2023/01/21 01:26:56;;;;;;;;;;;;;;;;;;6119770;23;19935;-70
2023/01/21 01:29:22;;;;;;;;;;;;;;;;;;6094043;23;19999;-70
2023/01/21 01:31:48;;;;;;;;;;;;;;;;;;6119605;23;19967;-69
2023/01/21 01:34:14;;;;;;;;;;;;;;;;;;6120418;23;19952;-70
2023/01/21 01:36:39;;;;;;;;;;;;;;;;;;6119786;23;19917;-69
2023/01/21 01:39:06;;;;;;;;;;;;;;;;;;6094023;23;19913;-69
2023/01/21 01:41:33;;;;;;;;;;;;;;;;;;6120019;23;19913;-72
2023/01/21 01:43:59;;;;;;;;;;;;;;;;;;6094155;23;19916;-70
2023/01/21 01:46:25;;;;;;;;;;;;;;;;;;6069969;23;19913;-70
2023/01/21 01:48:51;;;;;;;;;;;;;;;;;;6119845;23;19920;-70
2023/01/21 01:51:16;;;;;;;;;;;;;;;;;;6120699;23;19913;-69
2023/01/21 01:53:42;;;;;;;;;;;;;;;;;;6095130;23;19926;-71
2023/01/21 01:56:07;;;;;;;;;;;;;;;;;;6095436;23;19913;-69
2023/01/21 01:58:33;;;;;;;;;;;;;;;;;;6121399;23;19940;-69
2023/01/21 02:00:59;;;;;;;;;;;;;;;;;;6120864;23;19917;-70
2023/01/21 02:03:43;;;;;;;;;;;;;;;;;;6095884;23;20008;-70
2023/01/21 02:06:09;;;;;;;;;;;;;;;;;;6122379;23;19917;-69
2023/01/21 02:08:35;;;;;;;;;;;;;;;;;;6122069;23;20601;-69
2023/01/21 02:11:01;;;;;;;;;;;;;;;;;;6121060;23;19943;-70
2023/01/21 02:13:27;;;;;;;;;;;;;;;;;;6120086;23;20342;-69
2023/01/21 02:15:52;;;;;;;;;;;;;;;;;;6119572;23;19920;-70
2023/01/21 02:18:18;;;;;;;;;;;;;;;;;;6120260;23;19928;-70
2023/01/21 02:20:49;;;;;;;;;;;;;;;;;;6094570;23;19913;-69
2023/01/21 02:23:15;;;;;;;;;;;;;;;;;;6069955;23;19952;-70
2023/01/21 02:25:40;;;;;;;;;;;;;;;;;;6119538;23;19995;-69
2023/01/21 02:28:06;;;;;;;;;;;;;;;;;;6119892;23;19912;-71
2023/01/21 02:30:32;;;;;;;;;;;;;;;;;;6119548;23;19921;-71
2023/01/21 02:32:58;;;;;;;;;;;;;;;;;;6119859;23;20269;-70
2023/01/21 02:35:24;;;;;;;;;;;;;;;;;;6093664;23;19940;-70
2023/01/21 02:37:51;;;;;;;;;;;;;;;;;;6119557;23;19912;-69
2023/01/21 02:40:16;;;;;;;;;;;;;;;;;;6119808;23;19920;-70
2023/01/21 02:42:42;;;;;;;;;;;;;;;;;;6119735;23;19920;-70
2023/01/21 02:45:08;;;;;;;;;;;;;;;;;;6069841;23;19957;-69
2023/01/21 02:47:34;;;;;;;;;;;;;;;;;;6119829;23;19912;-70
2023/01/21 02:50:00;;;;;;;;;;;;;;;;;;6069820;23;19915;-70
2023/01/21 02:52:25;;;;;;;;;;;;;;;;;;6069663;23;19920;-69
2023/01/21 02:54:51;;;;;;;;;;;;;;;;;;6119782;23;19909;-69
2023/01/21 02:57:17;;;;;;;;;;;;;;;;;;6120042;23;19984;-68
2023/01/21 02:59:42;;;;;;;;;;;;;;;;;;6120241;23;19919;-68
2023/01/21 03:02:11;;;;;;;;;;;;;;;;;;6122392;23;19913;-70
2023/01/21 03:04:36;;;;;;;;;;;;;;;;;;6122709;23;20364;-69
2023/01/21 03:07:02;;;;;;;;;;;;;;;;;;6120702;23;20055;-70
2023/01/21 03:09:28;;;;;;;;;;;;;;;;;;6093958;23;19912;-70
2023/01/21 03:11:53;;;;;;;;;;;;;;;;;;6119789;23;19913;-70
2023/01/21 03:17:03;;;;;;;;;;;;;;;;;;6121138;23;19913;-69
2023/01/21 03:19:30;;;;;;;;;;;;;;;;;;6095629;23;19917;-70
2023/01/21 03:21:55;;;;;;;;;;;;;;;;;;6096362;23;20617;-69
2023/01/21 03:24:21;;;;;;;;;;;;;;;;;;6121851;23;19945;-69
2023/01/21 03:26:47;;;;;;;;;;;;;;;;;;6071246;23;19968;-69
2023/01/21 03:29:12;;;;;;;;;;;;;;;;;;6121399;23;20243;-69
2023/01/21 03:31:38;;;;;;;;;;;;;;;;;;6095149;23;19951;-70
2023/01/21 03:34:04;;;;;;;;;;;;;;;;;;6121772;23;20417;-70
2023/01/21 03:36:29;;;;;;;;;;;;;;;;;;6121470;23;20298;-69
2023/01/21 03:38:55;;;;;;;;;;;;;;;;;;6121616;23;19920;-69
2023/01/21 03:41:21;;;;;;;;;;;;;;;;;;6095658;23;20289;-68
2023/01/21 03:43:46;;;;;;;;;;;;;;;;;;6095035;23;19920;-68
2023/01/21 03:46:14;;;;;;;;;;;;;;;;;;6095535;23;19960;-68
2023/01/21 03:48:40;;;;;;;;;;;;;;;;;;6095329;23;20346;-69
2023/01/21 03:51:06;;;;;;;;;;;;;;;;;;6121264;23;19913;-68
2023/01/21 03:53:32;;;;;;;;;;;;;;;;;;6095143;23;19943;-68
2023/01/21 03:55:58;;;;;;;;;;;;;;;;;;6071007;23;20346;-71
2023/01/21 03:58:24;;;;;;;;;;;;;;;;;;6121119;23;19912;-70
2023/01/21 04:00:50;;;;;;;;;;;;;;;;;;6120709;23;20338;-70
2023/01/21 04:03:15;;;;;;;;;;;;;;;;;;6119073;23;20005;-69
2023/01/21 04:05:41;;;;;;;;;;;;;;;;;;6121144;23;19920;-70
2023/01/21 04:08:07;;;;;;;;;;;;;;;;;;6121120;23;19919;-71
2023/01/21 04:10:33;;;;;;;;;;;;;;;;;;6095323;23;19917;-71
2023/01/21 04:12:58;;;;;;;;;;;;;;;;;;6120910;23;20011;-71
2023/01/21 04:15:24;;;;;;;;;;;;;;;;;;6121306;23;20001;-71
2023/01/21 04:17:49;;;;;;;;;;;;;;;;;;6120465;23;19985;-71
2023/01/21 04:20:15;;;;;;;;;;;;;;;;;;6095339;23;20376;-70
2023/01/21 04:22:41;;;;;;;;;;;;;;;;;;6094765;23;19924;-71
2023/01/21 04:25:06;;;;;;;;;;;;;;;;;;6120611;23;19913;-70
2023/01/21 04:27:32;;;;;;;;;;;;;;;;;;6120960;23;19980;-70
2023/01/21 04:29:58;;;;;;;;;;;;;;;;;;6070522;23;19956;-71
2023/01/21 04:32:23;;;;;;;;;;;;;;;;;;6121222;23;19968;-71
2023/01/21 04:34:49;;;;;;;;;;;;;;;;;;6120130;23;19917;-70
2023/01/21 04:37:17;;;;;;;;;;;;;;;;;;6120799;23;19913;-71
2023/01/21 04:39:43;;;;;;;;;;;;;;;;;;6120106;23;19924;-71
2023/01/21 04:42:09;;;;;;;;;;;;;;;;;;6094796;23;19917;-71
2023/01/21 04:44:34;;;;;;;;;;;;;;;;;;6119586;23;20373;-71
2023/01/21 04:47:00;;;;;;;;;;;;;;;;;;6119693;23;19936;-71
2023/01/21 04:49:26;;;;;;;;;;;;;;;;;;6120514;23;19913;-71
2023/01/21 04:51:51;;;;;;;;;;;;;;;;;;6120563;23;19996;-70
2023/01/21 04:54:17;;;;;;;;;;;;;;;;;;6120795;23;19913;-71
2023/01/21 04:56:43;;;;;;;;;;;;;;;;;;6119948;23;19917;-71
2023/01/21 04:59:08;;;;;;;;;;;;;;;;;;6120098;23;19956;-71
2023/01/21 05:01:34;;;;;;;;;;;;;;;;;;6120183;23;19920;-71
2023/01/21 05:04:00;;;;;;;;;;;;;;;;;;6093619;23;20063;-72
2023/01/21 05:06:25;;;;;;;;;;;;;;;;;;6120555;23;19912;-72
2023/01/21 05:08:51;;;;;;;;;;;;;;;;;;6120585;23;19913;-72
2023/01/21 05:11:17;;;;;;;;;;;;;;;;;;6094430;23;20290;-71
2023/01/21 05:13:42;;;;;;;;;;;;;;;;;;6120283;23;19921;-72
2023/01/21 05:16:08;;;;;;;;;;;;;;;;;;6120627;23;19913;-71
2023/01/21 05:18:34;;;;;;;;;;;;;;;;;;6094608;23;19913;-71
2023/01/21 05:21:00;;;;;;;;;;;;;;;;;;6094159;23;20374;-72
2023/01/21 05:23:25;;;;;;;;;;;;;;;;;;6120462;23;19917;-71
2023/01/21 05:25:51;;;;;;;;;;;;;;;;;;6093771;23;19912;-71
2023/01/21 05:28:17;;;;;;;;;;;;;;;;;;6070411;23;19941;-70
2023/01/21 05:30:42;;;;;;;;;;;;;;;;;;6120321;23;19921;-72
2023/01/21 05:33:08;;;;;;;;;;;;;;;;;;6120402;23;19921;-72
2023/01/21 05:35:33;;;;;;;;;;;;;;;;;;6094514;23;19913;-72
2023/01/21 05:37:59;;;;;;;;;;;;;;;;;;6119994;23;20358;-71
2023/01/21 05:40:25;;;;;;;;;;;;;;;;;;6070418;23;20476;-74
2023/01/21 05:42:51;;;;;;;;;;;;;;;;;;6120348;23;20265;-71
2023/01/21 05:45:19;;;;;;;;;;;;;;;;;;6120370;23;19916;-71
2023/01/21 05:47:44;;;;;;;;;;;;;;;;;;6120211;23;19935;-71
2023/01/21 05:50:10;;;;;;;;;;;;;;;;;;6094267;23;19916;-71
2023/01/21 05:52:35;;;;;;;;;;;;;;;;;;6094097;23;19941;-72
2023/01/21 05:55:01;;;;;;;;;;;;;;;;;;6120515;23;19948;-71
2023/01/21 05:57:28;;;;;;;;;;;;;;;;;;6120263;23;19913;-71
2023/01/21 05:59:54;;;;;;;;;;;;;;;;;;6094526;23;20283;-74
2023/01/21 06:02:19;;;;;;;;;;;;;;;;;;6119599;23;19917;-72
2023/01/21 06:04:45;;;;;;;;;;;;;;;;;;6091885;23;20346;-70
2023/01/21 06:07:11;;;;;;;;;;;;;;;;;;6119617;23;20358;-69
2023/01/21 06:09:39;;;;;;;;;;;;;;;;;;6120254;23;20003;-71
2023/01/21 06:12:05;;;;;;;;;;;;;;;;;;6094866;23;19968;-71
2023/01/21 06:14:31;;;;;;;;;;;;;;;;;;6070241;23;19913;-71
2023/01/21 06:16:57;;;;;;;;;;;;;;;;;;6093819;23;19913;-70
2023/01/21 06:19:22;;;;;;;;;;;;;;;;;;6094462;23;20342;-71
2023/01/21 06:21:48;;;;;;;;;;;;;;;;;;6119660;23;19912;-71
2023/01/21 06:24:14;;;;;;;;;;;;;;;;;;6119558;23;19909;-71
2023/01/21 06:26:40;;;;;;;;;;;;;;;;;;6093637;23;19917;-70
2023/01/21 06:29:05;;;;;;;;;;;;;;;;;;6119915;23;19967;-71
2023/01/21 06:31:31;;;;;;;;;;;;;;;;;;6119256;23;19920;-71
2023/01/21 06:33:57;;;;;;;;;;;;;;;;;;6118869;23;19931;-70
2023/01/21 06:36:22;;;;;;;;;;;;;;;;;;6119645;23;20362;-71
2023/01/21 06:38:48;;;;;;;;;;;;;;;;;;6093278;23;19912;-70
2023/01/21 06:41:14;;;;;;;;;;;;;;;;;;6070228;23;19944;-71
2023/01/21 06:43:40;;;;;;;;;;;;;;;;;;6094071;23;20264;-71
2023/01/21 06:46:05;;;;;;;;;;;;;;;;;;6069600;23;19916;-71
2023/01/21 06:48:31;;;;;;;;;;;;;;;;;;6119340;23;19919;-71
2023/01/21 06:50:56;;;;;;;;;;;;;;;;;;6120785;23;20404;-71
2023/01/21 06:53:22;;;;;;;;;;;;;;;;;;6070771;23;19948;-71
2023/01/21 06:55:48;;;;;;;;;;;;;;;;;;6120729;23;20384;-71
2023/01/21 06:58:13;;;;;;;;;;;;;;;;;;6121490;23;20257;-72
2023/01/21 07:00:39;;;;;;;;;;;;;;;;;;6121962;23;20304;-71
2023/01/21 07:03:05;;;;;;;;;;;;;;;;;;6074118;23;20374;-70
2023/01/21 07:05:30;;;;;;;;;;;;;;;;;;6098759;23;20309;-71
2023/01/21 07:07:56;;;;;;;;;;;;;;;;;;6124677;23;20003;-71
2023/01/21 07:10:22;;;;;;;;;;;;;;;;;;6125467;23;20019;-71
2023/01/21 07:12:47;;;;;;;;;;;;;;;;;;6121808;23;19921;-71
2023/01/21 07:15:13;;;;;;;;;;;;;;;;;;6121975;23;19949;-72
2023/01/21 07:17:39;;;;;;;;;;;;;;;;;;6121766;23;19916;-72
2023/01/21 07:20:05;;;;;;;;;;;;;;;;;;6096188;23;19937;-71
2023/01/21 07:22:30;;;;;;;;;;;;;;;;;;6121787;23;20314;-72
2023/01/21 07:24:56;;;;;;;;;;;;;;;;;;6095488;23;19940;-71
2023/01/21 07:27:22;;;;;;;;;;;;;;;;;;6095714;23;19913;-71
2023/01/21 07:29:48;;;;;;;;;;;;;;;;;;6095098;23;19921;-71
2023/01/21 07:32:14;;;;;;;;;;;;;;;;;;6071663;23;20007;-71
2023/01/21 07:34:40;;;;;;;;;;;;;;;;;;6095720;23;20710;-70
2023/01/21 07:37:06;;;;;;;;;;;;;;;;;;6121783;23;19920;-71
2023/01/21 07:39:35;;;;;;;;;;;;;;;;;;6121212;23;19913;-71
2023/01/21 07:42:00;;;;;;;;;;;;;;;;;;6121087;23;20341;-71
2023/01/21 07:44:26;;;;;;;;;;;;;;;;;;6121483;23;19920;-71
2023/01/21 07:46:52;;;;;;;;;;;;;;;;;;6121037;23;19912;-71
2023/01/21 07:49:18;;;;;;;;;;;;;;;;;;6094834;23;19916;-70
2023/01/21 07:51:43;;;;;;;;;;;;;;;;;;6120939;23;19948;-71
2023/01/21 07:54:09;;;;;;;;;;;;;;;;;;6095529;23;19925;-71
2023/01/21 07:56:35;;;;;;;;;;;;;;;;;;6071670;23;19920;-71
2023/01/21 07:59:01;;;;;;;;;;;;;;;;;;6121384;23;20346;-71
2023/01/21 08:01:29;;;;;;;;;;;;;;;;;;6095412;23;19913;-71
2023/01/21 08:03:55;;;;;;;;;;;;;;;;;;6121271;23;20372;-71
2023/01/21 08:06:21;;;;;;;;;;;;;;;;;;6120764;23;19913;-71
2023/01/21 08:08:46;;;;;;;;;;;;;;;;;;6119317;23;19920;-72
2023/01/21 08:11:12;;;;;;;;;;;;;;;;;;6094976;23;20297;-70
2023/01/21 08:13:38;;;;;;;;;;;;;;;;;;6121336;23;19927;-71
2023/01/21 08:16:03;;;;;;;;;;;;;;;;;;6120711;23;19913;-72
2023/01/21 08:18:29;;;;;;;;;;;;;;;;;;6094990;23;19936;-72
2023/01/21 08:20:55;;;;;;;;;;;;;;;;;;6119569;23;20373;-74
2023/01/21 08:23:21;;;;;;;;;;;;;;;;;;6063603;23;19920;-72
2023/01/21 08:26:36;;;;;;;;;;;;;;;;;;6051756;23;19964;-70
2023/01/21 08:29:01;;;;;;;;;;;;;;;;;;6118566;23;19913;-71
2023/01/21 08:31:27;;;;;;;;;;;;;;;;;;6118984;23;19931;-72
2023/01/21 08:33:53;;;;;;;;;;;;;;;;;;6069556;23;19953;-71
2023/01/21 08:36:19;;;;;;;;;;;;;;;;;;6119709;23;19917;-71
2023/01/21 08:38:44;;;;;;;;;;;;;;;;;;6092694;23;19913;-70
2023/01/21 08:41:10;;;;;;;;;;;;;;;;;;6093479;23;19920;-71
2023/01/21 08:43:36;;;;;;;;;;;;;;;;;;6118466;23;19913;-70
2023/01/21 08:46:01;;;;;;;;;;;;;;;;;;6085049;23;20431;-71
2023/01/21 08:48:30;;;;;;;;;;;;;;;;;;6112175;23;19920;-71
2023/01/21 08:53:40;;;;;;;;;;;;;;;;;;6092658;23;19925;-71
2023/01/21 08:56:06;;;;;;;;;;;;;;;;;;6092825;23;19949;-70
2023/01/21 08:58:37;;;;;;;;;;;;;;;;;;6093031;23;19968;-70
2023/01/21 09:01:39;;;;;;;;;;;;;;;;;;6072366;23;19965;-70
2023/01/21 09:11:12;;;;;;;;;;;;;;;;;;6029595;23;19925;-71
2023/01/21 09:14:11;;;;;;;;;;;;;;;;;;6008344;23;20325;-70
2023/01/21 09:16:37;;;;;;;;;;;;;;;;;;6030245;23;19913;-71
2023/01/21 09:22:01;;;;;;;;;;;;;;;;;;;;;
2023/01/21 09:24:54;;;;;;;;;;;;;;;;;;6017038;23;19969;-71
2023/01/21 09:27:26;;;;;;;;;;;;;;;;;;6117863;23;19917;-72
2023/01/21 09:29:51;;;;;;;;;;;;;;;;;;6067761;23;19933;-71
2023/01/21 09:32:17;;;;;;;;;;;;;;;;;;6117986;23;19976;-70
2023/01/21 09:34:43;;;;;;;;;;;;;;;;;;6119568;23;20559;-69
2023/01/21 09:40:01;;;;;;;;;;;;;;;;;;6118902;23;19913;-71
2023/01/21 09:42:27;;;;;;;;;;;;;;;;;;6093379;23;19920;-70
2023/01/21 09:44:52;;;;;;;;;;;;;;;;;;6119872;23;19952;-73
2023/01/21 09:47:18;;;;;;;;;;;;;;;;;;6119819;23;20261;-70
2023/01/21 09:49:43;;;;;;;;;;;;;;;;;;6094081;23;19913;-73
2023/01/21 09:52:09;;;;;;;;;;;;;;;;;;6118747;23;20039;-70
2023/01/21 09:54:35;;;;;;;;;;;;;;;;;;6119737;23;20005;-71
2023/01/21 09:57:01;;;;;;;;;;;;;;;;;;6069873;23;19968;-71
2023/01/21 09:59:26;;;;;;;;;;;;;;;;;;6120272;23;19913;-70
2023/01/21 10:01:54;;;;;;;;;;;;;;;;;;6119419;23;19912;-70
2023/01/21 10:04:20;;;;;;;;;;;;;;;;;;6094250;23;19913;-70
2023/01/21 10:06:46;;;;;;;;;;;;;;;;;;6119978;23;19944;-72
2023/01/21 10:09:12;;;;;;;;;;;;;;;;;;6119824;23;19942;-70
2023/01/21 10:11:38;;;;;;;;;;;;;;;;;;6069764;23;19913;-70
2023/01/21 10:14:03;;;;;;;;;;;;;;;;;;6119638;23;19920;-71
2023/01/21 10:16:29;;;;;;;;;;;;;;;;;;6119710;23;19917;-71
2023/01/21 10:18:55;;;;;;;;;;;;;;;;;;6119897;23;19913;-71
2023/01/21 10:21:21;;;;;;;;;;;;;;;;;;6119842;23;19992;-71
2023/01/21 10:23:47;;;;;;;;;;;;;;;;;;6094154;23;19952;-71
2023/01/21 10:26:16;;;;;;;;;;;;;;;;;;6117836;23;19948;-72
2023/01/21 10:28:45;;;;;;;;;;;;;;;;;;6118753;23;19991;-71
2023/01/21 10:31:11;;;;;;;;;;;;;;;;;;6117632;23;20346;-70
2023/01/21 10:33:36;;;;;;;;;;;;;;;;;;6091498;23;19927;-71
2023/01/21 10:36:02;;;;;;;;;;;;;;;;;;6117497;23;20353;-70
2023/01/21 10:38:28;;;;;;;;;;;;;;;;;;6117654;23;19913;-70
2023/01/21 10:40:54;;;;;;;;;;;;;;;;;;6093708;23;19912;-70
2023/01/21 10:43:20;;;;;;;;;;;;;;;;;;6120570;23;20369;-71
2023/01/21 10:45:46;;;;;;;;;;;;;;;;;;6120154;23;19912;-71
2023/01/21 10:48:11;;;;;;;;;;;;;;;;;;6119876;23;20445;-72
2023/01/21 10:50:37;;;;;;;;;;;;;;;;;;6119943;23;19913;-72
2023/01/21 10:53:03;;;;;;;;;;;;;;;;;;6119677;23;19980;-72
2023/01/21 10:55:28;;;;;;;;;;;;;;;;;;6120649;23;20380;-73
2023/01/21 10:57:54;;;;;;;;;;;;;;;;;;6121173;23;20425;-72
2023/01/21 11:00:20;;;;;;;;;;;;;;;;;;6121621;23;19935;-72
2023/01/21 11:02:49;;;;;;;;;;;;;;;;;;6121141;23;20718;-71
2023/01/21 11:05:14;;;;;;;;;;;;;;;;;;6121500;23;19913;-72
2023/01/21 11:07:43;;;;;;;;;;;;;;;;;;6111192;23;19948;-72
2023/01/21 11:10:08;;;;;;;;;;;;;;;;;;6083860;23;20119;-71
2023/01/21 11:12:34;;;;;;;;;;;;;;;;;;6109961;23;19925;-71
2023/01/21 11:15:00;;;;;;;;;;;;;;;;;;6083627;23;19919;-71
2023/01/21 11:17:25;;;;;;;;;;;;;;;;;;6108573;23;20015;-72
2023/01/21 11:19:52;;;;;;;;;;;;;;;;;;6108734;23;20388;-72
2023/01/21 11:22:17;;;;;;;;;;;;;;;;;;6081474;23;19919;-72
2023/01/21 11:24:43;;;;;;;;;;;;;;;;;;6105220;23;20346;-73
2023/01/21 11:27:08;;;;;;;;;;;;;;;;;;6106203;23;20131;-72
2023/01/21 11:29:34;;;;;;;;;;;;;;;;;;6107239;23;20444;-72
2023/01/21 11:31:59;;;;;;;;;;;;;;;;;;6106364;23;20380;-72
2023/01/21 11:34:25;;;;;;;;;;;;;;;;;;6079907;23;20199;-71
2023/01/21 11:36:51;;;;;;;;;;;;;;;;;;6106387;23;20547;-73
2023/01/21 11:39:16;;;;;;;;;;;;;;;;;;6109126;23;19912;-72
2023/01/21 11:41:42;;;;;;;;;;;;;;;;;;6110471;23;19913;-72
2023/01/21 11:44:08;;;;;;;;;;;;;;;;;;6109804;23;19923;-74
2023/01/21 11:46:33;;;;;;;;;;;;;;;;;;6083678;23;20030;-72
2023/01/21 11:48:59;;;;;;;;;;;;;;;;;;6083760;23;19916;-72
2023/01/21 11:51:25;;;;;;;;;;;;;;;;;;6107929;23;19920;-73
2023/01/21 11:53:51;;;;;;;;;;;;;;;;;;6106883;23;19948;-74
2023/01/21 11:56:16;;;;;;;;;;;;;;;;;;6107845;23;20320;-76
2023/01/21 11:58:42;;;;;;;;;;;;;;;;;;6108849;23;19920;-78
2023/01/21 12:01:08;;;;;;;;;;;;;;;;;;6082978;23;19913;-75
2023/01/21 12:03:34;;;;;;;;;;;;;;;;;;6108171;23;19912;-77
2023/01/21 12:06:00;;;;;;;;;;;;;;;;;;6108792;23;19917;-78
2023/01/21 12:08:25;;;;;;;;;;;;;;;;;;6109290;23;19917;-78
2023/01/21 12:10:51;;;;;;;;;;;;;;;;;;6082560;23;20302;-78
2023/01/21 12:13:17;;;;;;;;;;;;;;;;;;6082206;23;20462;-77
2023/01/21 12:15:43;;;;;;;;;;;;;;;;;;6108379;23;19996;-78
2023/01/21 12:18:09;;;;;;;;;;;;;;;;;;6108890;23;19912;-78
2023/01/21 12:20:34;;;;;;;;;;;;;;;;;;6083874;23;20322;-78
2023/01/21 12:23:00;;;;;;;;;;;;;;;;;;6083135;23;20027;-77
2023/01/21 12:25:26;;;;;;;;;;;;;;;;;;6110578;23;19935;-78
2023/01/21 12:27:51;;;;;;;;;;;;;;;;;;6109775;23;19912;-77
2023/01/21 12:30:17;;;;;;;;;;;;;;;;;;6109574;23;19930;-77
2023/01/21 12:32:43;;;;;;;;;;;;;;;;;;6108978;23;19979;-78
2023/01/21 12:35:08;;;;;;;;;;;;;;;;;;6086733;23;20452;-77
2023/01/21 12:37:34;;;;;;;;;;;;;;;;;;6111173;23;19913;-75
2023/01/21 12:40:00;;;;;;;;;;;;;;;;;;6111941;23;19917;-77
2023/01/21 12:42:28;;;;;;;;;;;;;;;;;;6111900;23;19913;-76
2023/01/21 12:44:53;;;;;;;;;;;;;;;;;;6084434;23;19920;-78
2023/01/21 12:47:19;;;;;;;;;;;;;;;;;;6111019;23;19917;-76
2023/01/21 12:49:45;;;;;;;;;;;;;;;;;;6120804;23;19913;-76
2023/01/21 12:52:11;;;;;;;;;;;;;;;;;;6095230;23;19957;-76
2023/01/21 12:54:36;;;;;;;;;;;;;;;;;;6122980;23;19912;-76
2023/01/21 12:57:02;;;;;;;;;;;;;;;;;;6072458;23;20052;-77
2023/01/21 12:59:27;;;;;;;;;;;;;;;;;;6122250;23;20266;-77
2023/01/21 13:01:53;;;;;;;;;;;;;;;;;;6065488;23;19952;-77
2023/01/21 13:04:19;;;;;;;;;;;;;;;;;;6090339;23;19937;-75
2023/01/21 13:06:44;;;;;;;;;;;;;;;;;;6122777;23;20130;-75
2023/01/21 13:09:10;;;;;;;;;;;;;;;;;;6121108;23;20036;-69
2023/01/21 13:11:35;;;;;;;;;;;;;;;;;;6105831;23;19913;-69
2023/01/21 13:14:01;;;;;;;;;;;;;;;;;;6105423;23;20336;-69
2023/01/21 13:16:27;;;;;;;;;;;;;;;;;;6105823;23;19913;-70
2023/01/21 13:18:53;;;;;;;;;;;;;;;;;;6105354;23;20052;-71
2023/01/21 13:21:19;;;;;;;;;;;;;;;;;;6106836;23;20007;-70
2023/01/21 13:23:45;;;;;;;;;;;;;;;;;;6105464;23;20040;-70
2023/01/21 13:26:11;;;;;;;;;;;;;;;;;;6079350;23;19913;-70
2023/01/21 13:28:36;;;;;;;;;;;;;;;;;;6106428;23;19913;-71
2023/01/21 13:31:02;;;;;;;;;;;;;;;;;;6081432;23;20401;-71
2023/01/21 13:33:28;;;;;;;;;;;;;;;;;;6110045;23;19931;-71
2023/01/21 13:35:53;;;;;;;;;;;;;;;;;;6083943;23;19913;-71
2023/01/21 13:38:19;;;;;;;;;;;;;;;;;;6106706;23;19917;-71
2023/01/21 13:40:45;;;;;;;;;;;;;;;;;;6079958;23;19913;-70
2023/01/21 13:43:10;;;;;;;;;;;;;;;;;;6104715;23;19913;-71
2023/01/21 13:45:36;;;;;;;;;;;;;;;;;;6105989;23;20910;-70
2023/01/21 13:48:02;;;;;;;;;;;;;;;;;;6079164;23;20441;-71
2023/01/21 13:50:27;;;;;;;;;;;;;;;;;;6105814;23;19975;-71
2023/01/21 13:52:53;;;;;;;;;;;;;;;;;;6105953;23;19920;-71
2023/01/21 13:55:19;;;;;;;;;;;;;;;;;;6104692;23;20774;-71
2023/01/21 13:57:45;;;;;;;;;;;;;;;;;;6105544;23;19913;-70
2023/01/21 14:00:11;;;;;;;;;;;;;;;;;;6105606;23;19913;-71
2023/01/21 14:02:37;;;;;;;;;;;;;;;;;;6106042;23;19923;-71
2023/01/21 14:05:02;;;;;;;;;;;;;;;;;;6104821;23;19917;-71
2023/01/21 14:07:28;;;;;;;;;;;;;;;;;;6116429;23;19932;-71
2023/01/21 14:09:54;;;;;;;;;;;;;;;;;;6118564;23;19944;-70
2023/01/21 14:12:19;;;;;;;;;;;;;;;;;;6118300;23;19923;-70
2023/01/21 14:14:45;;;;;;;;;;;;;;;;;;6120151;23;19913;-68
2023/01/21 14:17:10;;;;;;;;;;;;;;;;;;6119109;23;20357;-70
2023/01/21 14:19:36;;;;;;;;;;;;;;;;;;6119992;23;19944;-70
2023/01/21 14:22:02;;;;;;;;;;;;;;;;;;6093777;23;19913;-70
2023/01/21 14:24:28;;;;;;;;;;;;;;;;;;6117365;23;19913;-70
2023/01/21 14:26:53;;;;;;;;;;;;;;;;;;6119516;23;19916;-70
2023/01/21 14:29:19;;;;;;;;;;;;;;;;;;6094032;23;19923;-71
2023/01/21 14:31:45;;;;;;;;;;;;;;;;;;6119631;23;20036;-70
2023/01/21 14:34:11;;;;;;;;;;;;;;;;;;6119679;23;19921;-71
2023/01/21 14:36:37;;;;;;;;;;;;;;;;;;6120074;23;19920;-71
2023/01/21 14:39:03;;;;;;;;;;;;;;;;;;6094113;23;20407;-70
2023/01/21 14:41:29;;;;;;;;;;;;;;;;;;6120223;23;19995;-71
2023/01/21 14:43:54;;;;;;;;;;;;;;;;;;6119491;23;20366;-69
2023/01/21 14:46:20;;;;;;;;;;;;;;;;;;6119724;23;19924;-70
2023/01/21 14:48:45;;;;;;;;;;;;;;;;;;6120104;23;19920;-69
2023/01/21 14:51:11;;;;;;;;;;;;;;;;;;6119026;23;19955;-71
2023/01/21 14:53:37;;;;;;;;;;;;;;;;;;6119210;23;19944;-69
2023/01/21 14:56:03;;;;;;;;;;;;;;;;;;6119010;23;19913;-70
2023/01/21 14:58:29;;;;;;;;;;;;;;;;;;6119639;23;19917;-70
2023/01/21 15:00:54;;;;;;;;;;;;;;;;;;6119575;23;19948;-70
2023/01/21 15:03:20;;;;;;;;;;;;;;;;;;6121501;23;20464;-70
2023/01/21 15:05:46;;;;;;;;;;;;;;;;;;6121240;23;20257;-70
2023/01/21 15:08:11;;;;;;;;;;;;;;;;;;6120963;23;19939;-70
2023/01/21 15:10:37;;;;;;;;;;;;;;;;;;6121401;23;20253;-70
2023/01/21 15:13:03;;;;;;;;;;;;;;;;;;6095914;23;19921;-70
2023/01/21 15:15:29;;;;;;;;;;;;;;;;;;6096024;23;19937;-71
2023/01/21 15:17:56;;;;;;;;;;;;;;;;;;6122421;23;19920;-70
2023/01/21 15:20:22;;;;;;;;;;;;;;;;;;6122149;23;19912;-70
2023/01/21 15:22:48;;;;;;;;;;;;;;;;;;6122055;23;19919;-70
2023/01/21 15:25:13;;;;;;;;;;;;;;;;;;6121511;23;19920;-71
2023/01/21 15:27:39;;;;;;;;;;;;;;;;;;6095650;23;19912;-71
2023/01/21 15:30:05;;;;;;;;;;;;;;;;;;6122409;23;19913;-70
2023/01/21 15:32:30;;;;;;;;;;;;;;;;;;6121077;23;19948;-69
2023/01/21 15:34:56;;;;;;;;;;;;;;;;;;6120614;23;20258;-70
2023/01/21 15:37:22;;;;;;;;;;;;;;;;;;6120347;23;19913;-70
2023/01/21 15:39:51;;;;;;;;;;;;;;;;;;6120936;23;19920;-70
2023/01/21 15:42:17;;;;;;;;;;;;;;;;;;6095531;23;20349;-70
2023/01/21 15:44:43;;;;;;;;;;;;;;;;;;6120915;23;19909;-70
2023/01/21 15:47:08;;;;;;;;;;;;;;;;;;6120630;23;19941;-70
2023/01/21 15:49:34;;;;;;;;;;;;;;;;;;6121186;23;19913;-70
2023/01/21 15:52:00;;;;;;;;;;;;;;;;;;6121270;23;19968;-70
2023/01/21 15:54:26;;;;;;;;;;;;;;;;;;6121594;23;19925;-69
2023/01/21 15:56:51;;;;;;;;;;;;;;;;;;6095754;23;19999;-70
2023/01/21 15:59:17;;;;;;;;;;;;;;;;;;6120336;23;20349;-70
2023/01/21 16:01:43;;;;;;;;;;;;;;;;;;6123015;23;19913;-71
2023/01/21 16:04:10;;;;;;;;;;;;;;;;;;6094564;23;19952;-70
2023/01/21 16:06:36;;;;;;;;;;;;;;;;;;6121820;23;19919;-70
2023/01/21 16:09:01;;;;;;;;;;;;;;;;;;6121023;23;19940;-70
2023/01/21 16:11:27;;;;;;;;;;;;;;;;;;6122369;23;19912;-70
2023/01/21 16:13:53;;;;;;;;;;;;;;;;;;6121941;23;19976;-69
2023/01/21 16:16:18;;;;;;;;;;;;;;;;;;6122033;23;20372;-70
2023/01/21 16:18:44;;;;;;;;;;;;;;;;;;6122147;23;20365;-69
2023/01/21 16:21:10;;;;;;;;;;;;;;;;;;6121912;23;19917;-70
2023/01/21 16:23:36;;;;;;;;;;;;;;;;;;6122109;23;19919;-70
2023/01/21 16:26:02;;;;;;;;;;;;;;;;;;6072078;23;19995;-70
2023/01/21 16:28:27;;;;;;;;;;;;;;;;;;6096184;23;20310;-70
2023/01/21 16:30:53;;;;;;;;;;;;;;;;;;6122221;23;19959;-70
2023/01/21 16:33:19;;;;;;;;;;;;;;;;;;6121637;23;20351;-70
2023/01/21 16:35:45;;;;;;;;;;;;;;;;;;6122311;23;19919;-69
2023/01/21 16:38:11;;;;;;;;;;;;;;;;;;6095901;23;20366;-69
2023/01/21 16:40:36;;;;;;;;;;;;;;;;;;6122050;23;19919;-69
2023/01/21 16:43:02;;;;;;;;;;;;;;;;;;6095667;23;19920;-70
2023/01/21 16:45:27;;;;;;;;;;;;;;;;;;6072543;23;19913;-70
2023/01/21 16:47:55;;;;;;;;;;;;;;;;;;6122114;23;19913;-70
2023/01/21 16:50:21;;;;;;;;;;;;;;;;;;6096054;23;19913;-70
2023/01/21 16:52:47;;;;;;;;;;;;;;;;;;6122130;23;19949;-69
2023/01/21 16:55:12;;;;;;;;;;;;;;;;;;6121813;23;19913;-70
2023/01/21 16:57:38;;;;;;;;;;;;;;;;;;6096199;23;20368;-71